sensor_id;sensor_type;location;lat;lon;timestamp;pressure;altitude;pressure_sealevel;temperature;humidity
5755;BME280;2902;42.130;24.732;2023-08-30T00:01:08;98312.94;;;25.87;75.80
5755;BME280;2902;42.130;24.732;2023-08-30T00:03:35;98313.75;;;25.79;75.51
5755;BME280;2902;42.130;24.732;2023-08-30T00:06:05;98317.13;;;25.68;75.71
5755;BME280;2902;42.130;24.732;2023-08-30T00:08:33;98310.09;;;25.58;76.26
5755;BME280;2902;42.130;24.732;2023-08-30T00:11:00;98304.34;;;25.60;75.47
5755;BME280;2902;42.130;24.732;2023-08-30T00:13:29;98303.53;;;25.68;74.72
5755;BME280;2902;42.130;24.732;2023-08-30T00:15:56;98304.31;;;25.77;74.35
5755;BME280;2902;42.130;24.732;2023-08-30T00:18:22;98303.69;;;25.80;73.87
5755;BME280;2902;42.130;24.732;2023-08-30T00:20:49;98298.88;;;25.77;74.31
5755;BME280;2902;42.130;24.732;2023-08-30T00:23:16;98306.84;;;25.82;73.24
5755;BME280;2902;42.130;24.732;2023-08-30T00:25:44;98313.75;;;25.79;72.28
5755;BME280;2902;42.130;24.732;2023-08-30T00:28:11;98311.34;;;25.78;72.81
5755;BME280;2902;42.130;24.732;2023-08-30T00:30:37;98312.66;;;25.72;72.79
5755;BME280;2902;42.130;24.732;2023-08-30T00:33:04;98314.59;;;25.63;72.98
5755;BME280;2902;42.130;24.732;2023-08-30T00:35:31;98315.69;;;25.62;72.50
5755;BME280;2902;42.130;24.732;2023-08-30T00:37:57;98310.41;;;25.57;73.01
5755;BME280;2902;42.130;24.732;2023-08-30T00:40:24;98309.63;;;25.56;73.03
5755;BME280;2902;42.130;24.732;2023-08-30T00:42:53;98318.59;;;25.57;72.28
5755;BME280;2902;42.130;24.732;2023-08-30T00:45:19;98320.03;;;25.46;71.80
5755;BME280;2902;42.130;24.732;2023-08-30T00:47:46;98317.13;;;25.34;73.09
5755;BME280;2902;42.130;24.732;2023-08-30T00:50:13;98315.88;;;25.31;72.98
5755;BME280;2902;42.130;24.732;2023-08-30T00:52:40;98319.66;;;25.22;72.51
5755;BME280;2902;42.130;24.732;2023-08-30T00:55:07;98316.81;;;25.10;72.25
5755;BME280;2902;42.130;24.732;2023-08-30T00:57:34;98312.78;;;25.07;72.88
5755;BME280;2902;42.130;24.732;2023-08-30T01:00:03;98311.50;;;25.04;73.09
5755;BME280;2902;42.130;24.732;2023-08-30T01:02:32;98312.00;;;25.07;72.30
5755;BME280;2902;42.130;24.732;2023-08-30T01:04:59;98320.47;;;25.05;72.58
5755;BME280;2902;42.130;24.732;2023-08-30T01:07:26;98322.53;;;24.99;72.08
5755;BME280;2902;42.130;24.732;2023-08-30T01:09:53;98315.84;;;25.06;72.71
5755;BME280;2902;42.130;24.732;2023-08-30T01:12:23;98319.81;;;25.17;72.22
5755;BME280;2902;42.130;24.732;2023-08-30T01:14:52;98325.56;;;25.15;71.72
5755;BME280;2902;42.130;24.732;2023-08-30T01:17:23;98332.78;;;25.20;70.76
5755;BME280;2902;42.130;24.732;2023-08-30T01:19:54;98336.78;;;25.22;71.11
5755;BME280;2902;42.130;24.732;2023-08-30T01:22:37;98330.13;;;25.28;70.59
5755;BME280;2902;42.130;24.732;2023-08-30T01:25:16;98336.84;;;25.31;70.30
5755;BME280;2902;42.130;24.732;2023-08-30T01:27:47;98336.97;;;25.34;70.78
5755;BME280;2902;42.130;24.732;2023-08-30T01:30:15;98331.56;;;25.43;70.21
5755;BME280;2902;42.130;24.732;2023-08-30T01:32:43;98320.19;;;25.41;69.76
5755;BME280;2902;42.130;24.732;2023-08-30T01:35:12;98349.13;;;25.54;69.05
5755;BME280;2902;42.130;24.732;2023-08-30T01:37:44;98350.75;;;25.55;69.31
5755;BME280;2902;42.130;24.732;2023-08-30T01:40:11;98326.75;;;25.40;69.61
5755;BME280;2902;42.130;24.732;2023-08-30T01:42:40;98347.38;;;25.49;69.13
5755;BME280;2902;42.130;24.732;2023-08-30T01:45:10;98344.66;;;25.49;69.54
5755;BME280;2902;42.130;24.732;2023-08-30T01:47:39;98351.69;;;25.50;69.25
5755;BME280;2902;42.130;24.732;2023-08-30T01:50:08;98349.94;;;25.54;68.74
5755;BME280;2902;42.130;24.732;2023-08-30T01:52:36;98353.94;;;25.57;68.72
5755;BME280;2902;42.130;24.732;2023-08-30T01:55:03;98359.38;;;25.57;68.26
5755;BME280;2902;42.130;24.732;2023-08-30T01:57:31;98361.78;;;25.58;68.76
5755;BME280;2902;42.130;24.732;2023-08-30T01:59:57;98358.75;;;25.60;68.45
5755;BME280;2902;42.130;24.732;2023-08-30T02:02:28;98359.38;;;25.57;68.45
5755;BME280;2902;42.130;24.732;2023-08-30T02:04:55;98359.22;;;25.62;68.64
5755;BME280;2902;42.130;24.732;2023-08-30T02:07:25;98358.75;;;25.60;68.34
5755;BME280;2902;42.130;24.732;2023-08-30T02:09:57;98356.16;;;25.63;67.91
5755;BME280;2902;42.130;24.732;2023-08-30T02:12:29;98352.34;;;25.73;67.55
5755;BME280;2902;42.130;24.732;2023-08-30T02:14:58;98351.69;;;25.76;67.23
5755;BME280;2902;42.130;24.732;2023-08-30T02:17:29;98347.84;;;25.77;67.38
5755;BME280;2902;42.130;24.732;2023-08-30T02:19:56;98350.41;;;25.82;67.11
5755;BME280;2902;42.130;24.732;2023-08-30T02:22:23;98352.00;;;25.66;67.59
5755;BME280;2902;42.130;24.732;2023-08-30T02:24:50;98348.97;;;25.50;68.31
5755;BME280;2902;42.130;24.732;2023-08-30T02:27:16;98339.56;;;25.48;68.13
5755;BME280;2902;42.130;24.732;2023-08-30T02:29:43;98337.16;;;25.46;68.28
5755;BME280;2902;42.130;24.732;2023-08-30T02:32:09;98343.41;;;25.47;68.49
5755;BME280;2902;42.130;24.732;2023-08-30T02:34:37;98353.44;;;25.38;69.69
5755;BME280;2902;42.130;24.732;2023-08-30T02:37:04;98349.44;;;25.27;69.98
5755;BME280;2902;42.130;24.732;2023-08-30T02:39:31;98347.16;;;25.12;71.17
5755;BME280;2902;42.130;24.732;2023-08-30T02:41:58;98347.63;;;25.05;71.10
5755;BME280;2902;42.130;24.732;2023-08-30T02:44:24;98334.84;;;24.97;71.09
5755;BME280;2902;42.130;24.732;2023-08-30T02:46:51;98344.06;;;24.87;71.64
5755;BME280;2902;42.130;24.732;2023-08-30T02:49:18;98353.78;;;24.71;71.76
5755;BME280;2902;42.130;24.732;2023-08-30T02:51:46;98346.16;;;24.51;73.28
5755;BME280;2902;42.130;24.732;2023-08-30T02:54:13;98350.50;;;24.52;72.63
5755;BME280;2902;42.130;24.732;2023-08-30T02:56:40;98343.81;;;24.58;72.69
5755;BME280;2902;42.130;24.732;2023-08-30T02:59:07;98348.34;;;24.71;72.51
5755;BME280;2902;42.130;24.732;2023-08-30T03:01:34;98359.25;;;24.80;72.12
5755;BME280;2902;42.130;24.732;2023-08-30T03:04:01;98358.75;;;24.78;72.14
5755;BME280;2902;42.130;24.732;2023-08-30T03:06:28;98360.19;;;24.75;72.57
5755;BME280;2902;42.130;24.732;2023-08-30T03:08:56;98359.22;;;24.71;72.48
5755;BME280;2902;42.130;24.732;2023-08-30T03:11:23;98357.16;;;24.68;72.27
5755;BME280;2902;42.130;24.732;2023-08-30T03:13:50;98366.69;;;24.66;73.02
5755;BME280;2902;42.130;24.732;2023-08-30T03:16:17;98368.97;;;24.72;72.33
5755;BME280;2902;42.130;24.732;2023-08-30T03:18:44;98368.03;;;24.77;72.49
5755;BME280;2902;42.130;24.732;2023-08-30T03:21:10;98376.84;;;24.82;72.12
5755;BME280;2902;42.130;24.732;2023-08-30T03:23:38;98372.06;;;24.88;72.07
5755;BME280;2902;42.130;24.732;2023-08-30T03:26:09;98373.50;;;24.94;71.98
5755;BME280;2902;42.130;24.732;2023-08-30T03:28:36;98376.72;;;25.04;71.57
5755;BME280;2902;42.130;24.732;2023-08-30T03:31:11;98387.28;;;25.06;71.28
5755;BME280;2902;42.130;24.732;2023-08-30T03:33:38;98388.09;;;25.07;71.54
5755;BME280;2902;42.130;24.732;2023-08-30T03:36:07;98382.03;;;25.10;71.62
5755;BME280;2902;42.130;24.732;2023-08-30T03:38:33;98383.78;;;25.14;70.34
5755;BME280;2902;42.130;24.732;2023-08-30T03:41:00;98394.19;;;25.21;70.53
5755;BME280;2902;42.130;24.732;2023-08-30T03:43:28;98392.94;;;25.27;69.88
5755;BME280;2902;42.130;24.732;2023-08-30T03:45:54;98401.88;;;25.19;69.57
5755;BME280;2902;42.130;24.732;2023-08-30T03:48:21;98399.16;;;25.19;69.58
5755;BME280;2902;42.130;24.732;2023-08-30T03:50:48;98395.78;;;25.22;69.60
5755;BME280;2902;42.130;24.732;2023-08-30T03:53:15;98391.97;;;25.23;68.50
5755;BME280;2902;42.130;24.732;2023-08-30T03:55:41;98395.00;;;25.21;68.53
5755;BME280;2902;42.130;24.732;2023-08-30T03:58:08;98400.28;;;25.18;68.92
5755;BME280;2902;42.130;24.732;2023-08-30T04:00:37;98397.84;;;25.08;70.36
5755;BME280;2902;42.130;24.732;2023-08-30T04:03:05;98401.53;;;25.12;70.76
5755;BME280;2902;42.130;24.732;2023-08-30T04:05:32;98407.47;;;25.22;70.46
5755;BME280;2902;42.130;24.732;2023-08-30T04:08:01;98414.88;;;25.30;70.05
5755;BME280;2902;42.130;24.732;2023-08-30T04:10:28;98423.81;;;25.39;70.18
5755;BME280;2902;42.130;24.732;2023-08-30T04:12:55;98429.91;;;25.45;69.34
5755;BME280;2902;42.130;24.732;2023-08-30T04:15:21;98426.75;;;25.60;68.43
5755;BME280;2902;42.130;24.732;2023-08-30T04:17:49;98421.63;;;25.75;67.49
5755;BME280;2902;42.130;24.732;2023-08-30T04:20:16;98423.06;;;25.90;66.83
5755;BME280;2902;42.130;24.732;2023-08-30T04:22:43;98421.00;;;26.04;66.01
5755;BME280;2902;42.130;24.732;2023-08-30T04:25:10;98428.47;;;26.24;65.12
5755;BME280;2902;42.130;24.732;2023-08-30T04:27:36;98435.03;;;26.40;65.31
5755;BME280;2902;42.130;24.732;2023-08-30T04:30:03;98427.94;;;26.56;64.09
5755;BME280;2902;42.130;24.732;2023-08-30T04:32:30;98431.75;;;26.72;64.00
5755;BME280;2902;42.130;24.732;2023-08-30T04:34:58;98435.53;;;26.88;63.31
5755;BME280;2902;42.130;24.732;2023-08-30T04:37:25;98434.59;;;27.13;62.05
5755;BME280;2902;42.130;24.732;2023-08-30T04:39:51;98438.00;;;27.39;61.73
5755;BME280;2902;42.130;24.732;2023-08-30T04:42:18;98434.31;;;27.64;60.77
5755;BME280;2902;42.130;24.732;2023-08-30T04:44:45;98439.06;;;27.96;60.83
5755;BME280;2902;42.130;24.732;2023-08-30T04:47:11;98441.22;;;28.23;59.33
5755;BME280;2902;42.130;24.732;2023-08-30T04:49:38;98439.97;;;28.53;57.72
5755;BME280;2902;42.130;24.732;2023-08-30T04:52:06;98446.59;;;28.64;56.12
5755;BME280;2902;42.130;24.732;2023-08-30T04:54:33;98445.00;;;28.51;56.54
5755;BME280;2902;42.130;24.732;2023-08-30T04:56:59;98442.66;;;28.41;57.38
5755;BME280;2902;42.130;24.732;2023-08-30T04:59:26;98444.06;;;28.47;56.37
5755;BME280;2902;42.130;24.732;2023-08-30T05:01:53;98452.38;;;28.50;55.27
5755;BME280;2902;42.130;24.732;2023-08-30T05:04:19;98458.09;;;28.37;55.22
5755;BME280;2902;42.130;24.732;2023-08-30T05:06:46;98438.44;;;28.11;56.46
5755;BME280;2902;42.130;24.732;2023-08-30T05:09:14;98447.94;;;27.93;57.26
5755;BME280;2902;42.130;24.732;2023-08-30T05:11:41;98439.66;;;27.81;57.71
5755;BME280;2902;42.130;24.732;2023-08-30T05:14:07;98441.91;;;27.79;58.50
5755;BME280;2902;42.130;24.732;2023-08-30T05:16:38;98444.19;;;27.77;57.99
5755;BME280;2902;42.130;24.732;2023-08-30T05:19:04;98448.59;;;27.90;57.82
5755;BME280;2902;42.130;24.732;2023-08-30T05:21:31;98454.34;;;28.29;56.99
5755;BME280;2902;42.130;24.732;2023-08-30T05:23:58;98455.63;;;28.76;54.75
5755;BME280;2902;42.130;24.732;2023-08-30T05:26:26;98464.69;;;29.01;53.71
5755;BME280;2902;42.130;24.732;2023-08-30T05:28:52;98461.72;;;29.30;52.55
5755;BME280;2902;42.130;24.732;2023-08-30T05:31:19;98472.66;;;29.54;51.00
5755;BME280;2902;42.130;24.732;2023-08-30T05:33:46;98484.00;;;29.92;49.96
5755;BME280;2902;42.130;24.732;2023-08-30T05:36:12;98476.00;;;29.99;49.92
5755;BME280;2902;42.130;24.732;2023-08-30T05:38:39;98481.16;;;29.89;49.67
5755;BME280;2902;42.130;24.732;2023-08-30T05:41:07;98480.84;;;29.90;49.41
5755;BME280;2902;42.130;24.732;2023-08-30T05:43:35;98482.59;;;30.22;48.55
5755;BME280;2902;42.130;24.732;2023-08-30T05:46:01;98482.66;;;30.53;48.00
5755;BME280;2902;42.130;24.732;2023-08-30T05:48:28;98491.41;;;30.71;47.13
5755;BME280;2902;42.130;24.732;2023-08-30T05:50:55;98490.09;;;30.53;47.56
5755;BME280;2902;42.130;24.732;2023-08-30T05:53:22;98495.13;;;30.23;48.56
5755;BME280;2902;42.130;24.732;2023-08-30T05:55:49;98499.16;;;30.41;48.13
5755;BME280;2902;42.130;24.732;2023-08-30T05:58:16;98505.47;;;30.69;47.55
5755;BME280;2902;42.130;24.732;2023-08-30T06:00:45;98502.66;;;30.81;47.76
5755;BME280;2902;42.130;24.732;2023-08-30T06:03:11;98494.69;;;30.49;48.04
5755;BME280;2902;42.130;24.732;2023-08-30T06:05:38;98481.56;;;30.03;49.54
5755;BME280;2902;42.130;24.732;2023-08-30T06:08:05;98493.88;;;29.69;51.13
5755;BME280;2902;42.130;24.732;2023-08-30T06:10:33;98492.84;;;29.38;51.23
5755;BME280;2902;42.130;24.732;2023-08-30T06:13:00;98483.78;;;28.89;53.28
5755;BME280;2902;42.130;24.732;2023-08-30T06:15:27;98477.78;;;28.30;54.92
5755;BME280;2902;42.130;24.732;2023-08-30T06:17:56;98479.84;;;28.01;57.13
5755;BME280;2902;42.130;24.732;2023-08-30T06:20:24;98468.09;;;28.00;57.40
5755;BME280;2902;42.130;24.732;2023-08-30T06:22:50;98481.88;;;28.04;58.42
5755;BME280;2902;42.130;24.732;2023-08-30T06:25:17;98486.72;;;28.19;56.89
5755;BME280;2902;42.130;24.732;2023-08-30T06:27:56;98488.59;;;28.59;56.24
5755;BME280;2902;42.130;24.732;2023-08-30T06:30:24;98488.34;;;28.97;55.04
5755;BME280;2902;42.130;24.732;2023-08-30T06:32:51;98492.41;;;29.36;53.16
5755;BME280;2902;42.130;24.732;2023-08-30T06:35:19;98499.69;;;29.80;51.41
5755;BME280;2902;42.130;24.732;2023-08-30T06:37:46;98498.13;;;30.18;50.61
5755;BME280;2902;42.130;24.732;2023-08-30T06:40:13;98501.16;;;30.56;49.79
5755;BME280;2902;42.130;24.732;2023-08-30T06:42:39;98515.66;;;31.00;48.24
5755;BME280;2902;42.130;24.732;2023-08-30T06:45:07;98527.72;;;31.42;47.29
5755;BME280;2902;42.130;24.732;2023-08-30T06:47:34;98517.19;;;31.59;46.41
5755;BME280;2902;42.130;24.732;2023-08-30T06:50:01;98531.00;;;31.78;45.89
5755;BME280;2902;42.130;24.732;2023-08-30T06:52:30;98527.16;;;31.98;45.16
5755;BME280;2902;42.130;24.732;2023-08-30T06:54:57;98535.84;;;32.19;43.95
5755;BME280;2902;42.130;24.732;2023-08-30T06:57:23;98540.94;;;32.36;44.02
5755;BME280;2902;42.130;24.732;2023-08-30T06:59:50;98530.66;;;32.52;43.51
5755;BME280;2902;42.130;24.732;2023-08-30T07:02:17;98537.44;;;32.58;43.27
5755;BME280;2902;42.130;24.732;2023-08-30T07:04:43;98530.72;;;32.75;43.86
5755;BME280;2902;42.130;24.732;2023-08-30T07:07:12;98532.41;;;32.60;43.47
5755;BME280;2902;42.130;24.732;2023-08-30T07:09:40;98527.97;;;32.56;42.84
5755;BME280;2902;42.130;24.732;2023-08-30T07:12:07;98524.00;;;32.53;43.42
5755;BME280;2902;42.130;24.732;2023-08-30T07:14:34;98518.66;;;32.60;42.78
5755;BME280;2902;42.130;24.732;2023-08-30T07:17:00;98519.97;;;32.70;41.60
5755;BME280;2902;42.130;24.732;2023-08-30T07:19:27;98515.53;;;32.62;42.30
5755;BME280;2902;42.130;24.732;2023-08-30T07:21:54;98518.03;;;32.70;42.35
5755;BME280;2902;42.130;24.732;2023-08-30T07:24:20;98524.63;;;32.85;42.13
5755;BME280;2902;42.130;24.732;2023-08-30T07:26:49;98520.13;;;32.96;41.72
5755;BME280;2902;42.130;24.732;2023-08-30T07:29:16;98523.84;;;32.84;41.12
5755;BME280;2902;42.130;24.732;2023-08-30T07:31:43;98512.47;;;33.08;41.59
5755;BME280;2902;42.130;24.732;2023-08-30T07:34:09;98512.47;;;33.08;41.03
5755;BME280;2902;42.130;24.732;2023-08-30T07:36:37;98515.13;;;33.01;40.87
5755;BME280;2902;42.130;24.732;2023-08-30T07:39:03;98511.50;;;32.78;41.16
5755;BME280;2902;42.130;24.732;2023-08-30T07:41:32;98509.44;;;32.72;40.98
5755;BME280;2902;42.130;24.732;2023-08-30T07:44:00;98508.09;;;32.43;42.33
5755;BME280;2902;42.130;24.732;2023-08-30T07:46:26;98507.91;;;32.74;41.69
5755;BME280;2902;42.130;24.732;2023-08-30T07:48:53;98507.44;;;32.91;41.15
5755;BME280;2902;42.130;24.732;2023-08-30T07:51:20;98499.56;;;33.12;40.42
5755;BME280;2902;42.130;24.732;2023-08-30T07:53:47;98498.28;;;33.06;41.27
5755;BME280;2902;42.130;24.732;2023-08-30T07:56:14;98505.72;;;33.28;40.79
5755;BME280;2902;42.130;24.732;2023-08-30T07:58:41;98509.28;;;33.52;40.35
5755;BME280;2902;42.130;24.732;2023-08-30T08:01:09;98502.41;;;33.65;40.15
5755;BME280;2902;42.130;24.732;2023-08-30T08:03:36;98500.25;;;33.77;39.66
5755;BME280;2902;42.130;24.732;2023-08-30T08:06:03;98501.44;;;33.80;39.49
5755;BME280;2902;42.130;24.732;2023-08-30T08:08:29;98501.56;;;33.87;39.19
5755;BME280;2902;42.130;24.732;2023-08-30T08:10:56;98496.47;;;33.89;39.29
5755;BME280;2902;42.130;24.732;2023-08-30T08:13:23;98496.59;;;33.96;39.79
5755;BME280;2902;42.130;24.732;2023-08-30T08:15:49;98493.78;;;33.92;38.71
5755;BME280;2902;42.130;24.732;2023-08-30T08:18:17;98490.00;;;33.78;39.75
5755;BME280;2902;42.130;24.732;2023-08-30T08:20:44;98494.84;;;34.14;38.95
5755;BME280;2902;42.130;24.732;2023-08-30T08:23:11;98486.88;;;34.35;37.60
5755;BME280;2902;42.130;24.732;2023-08-30T08:25:37;98469.13;;;34.36;37.87
5755;BME280;2902;42.130;24.732;2023-08-30T08:28:04;98484.91;;;34.72;38.25
5755;BME280;2902;42.130;24.732;2023-08-30T08:30:31;98487.94;;;34.60;37.45
5755;BME280;2902;42.130;24.732;2023-08-30T08:32:58;98497.50;;;34.69;37.47
5755;BME280;2902;42.130;24.732;2023-08-30T08:35:26;98491.94;;;34.66;37.93
5755;BME280;2902;42.130;24.732;2023-08-30T08:37:53;98479.16;;;34.51;36.85
5755;BME280;2902;42.130;24.732;2023-08-30T08:40:20;98481.22;;;34.28;37.30
5755;BME280;2902;42.130;24.732;2023-08-30T08:42:48;98470.41;;;34.42;38.23
5755;BME280;2902;42.130;24.732;2023-08-30T08:45:16;98475.91;;;34.78;36.93
5755;BME280;2902;42.130;24.732;2023-08-30T08:47:45;98466.34;;;35.09;36.40
5755;BME280;2902;42.130;24.732;2023-08-30T08:50:12;98464.59;;;35.34;35.65
5755;BME280;2902;42.130;24.732;2023-08-30T08:52:41;98469.94;;;34.73;36.85
5755;BME280;2902;42.130;24.732;2023-08-30T08:55:08;98463.97;;;34.31;37.08
5755;BME280;2902;42.130;24.732;2023-08-30T08:57:35;98460.03;;;34.32;37.38
5755;BME280;2902;42.130;24.732;2023-08-30T09:00:04;98460.13;;;34.39;36.99
5755;BME280;2902;42.130;24.732;2023-08-30T09:02:32;98455.66;;;34.64;36.81
5755;BME280;2902;42.130;24.732;2023-08-30T09:04:59;98450.19;;;34.67;36.80
5755;BME280;2902;42.130;24.732;2023-08-30T09:07:27;98447.53;;;34.78;36.24
5755;BME280;2902;42.130;24.732;2023-08-30T09:09:56;98461.59;;;35.06;35.85
5755;BME280;2902;42.130;24.732;2023-08-30T09:12:23;98448.28;;;34.75;36.19
5755;BME280;2902;42.130;24.732;2023-08-30T09:14:54;98450.06;;;34.93;35.71
5755;BME280;2902;42.130;24.732;2023-08-30T09:17:21;98445.72;;;34.92;35.31
5755;BME280;2902;42.130;24.732;2023-08-30T09:19:48;98444.47;;;34.86;35.42
5755;BME280;2902;42.130;24.732;2023-08-30T09:22:15;98458.81;;;35.06;35.46
5755;BME280;2902;42.130;24.732;2023-08-30T09:24:42;98450.69;;;35.23;34.02
5755;BME280;2902;42.130;24.732;2023-08-30T09:27:10;98444.56;;;35.44;33.87
5755;BME280;2902;42.130;24.732;2023-08-30T09:29:37;98442.13;;;35.35;34.43
5755;BME280;2902;42.130;24.732;2023-08-30T09:32:04;98432.56;;;35.26;34.09
5755;BME280;2902;42.130;24.732;2023-08-30T09:34:31;98426.34;;;35.36;35.06
5755;BME280;2902;42.130;24.732;2023-08-30T09:36:58;98418.53;;;35.48;34.14
5755;BME280;2902;42.130;24.732;2023-08-30T09:39:27;98422.53;;;35.58;34.83
5755;BME280;2902;42.130;24.732;2023-08-30T09:41:54;98421.69;;;35.47;33.87
5755;BME280;2902;42.130;24.732;2023-08-30T09:44:22;98424.88;;;35.49;32.80
5755;BME280;2902;42.130;24.732;2023-08-30T09:46:50;98420.06;;;35.39;33.71
5755;BME280;2902;42.130;24.732;2023-08-30T09:49:19;98405.03;;;34.46;36.07
5755;BME280;2902;42.130;24.732;2023-08-30T09:51:47;98401.31;;;33.98;36.61
5755;BME280;2902;42.130;24.732;2023-08-30T09:54:15;98406.88;;;34.02;35.93
5755;BME280;2902;42.130;24.732;2023-08-30T09:56:43;98393.91;;;34.39;36.18
5755;BME280;2902;42.130;24.732;2023-08-30T09:59:10;98413.31;;;34.46;35.55
5755;BME280;2902;42.130;24.732;2023-08-30T10:01:39;98406.06;;;34.71;35.55
5755;BME280;2902;42.130;24.732;2023-08-30T10:04:07;98413.00;;;34.94;35.76
5755;BME280;2902;42.130;24.732;2023-08-30T10:06:35;98409.13;;;35.06;34.94
5755;BME280;2902;42.130;24.732;2023-08-30T10:09:03;98397.09;;;35.28;34.85
5755;BME280;2902;42.130;24.732;2023-08-30T10:11:32;98394.03;;;35.40;34.55
5755;BME280;2902;42.130;24.732;2023-08-30T10:14:02;98391.72;;;35.49;33.83
5755;BME280;2902;42.130;24.732;2023-08-30T10:16:32;98402.81;;;35.59;34.13
5755;BME280;2902;42.130;24.732;2023-08-30T10:19:07;98399.66;;;35.57;32.92
5755;BME280;2902;42.130;24.732;2023-08-30T10:21:36;98382.41;;;35.17;34.29
5755;BME280;2902;42.130;24.732;2023-08-30T10:24:05;98390.84;;;35.34;32.77
5755;BME280;2902;42.130;24.732;2023-08-30T10:26:34;98384.09;;;35.32;32.90
5755;BME280;2902;42.130;24.732;2023-08-30T10:29:02;98382.75;;;35.12;33.58
5755;BME280;2902;42.130;24.732;2023-08-30T10:31:29;98381.31;;;35.28;34.57
5755;BME280;2902;42.130;24.732;2023-08-30T10:33:56;98389.69;;;35.39;33.35
5755;BME280;2902;42.130;24.732;2023-08-30T10:36:26;98388.47;;;35.36;33.39
5755;BME280;2902;42.130;24.732;2023-08-30T10:38:53;98379.84;;;35.45;33.47
5755;BME280;2902;42.130;24.732;2023-08-30T10:41:21;98379.47;;;35.50;32.08
5755;BME280;2902;42.130;24.732;2023-08-30T10:43:50;98375.88;;;35.46;32.09
5755;BME280;2902;42.130;24.732;2023-08-30T10:46:29;98377.50;;;35.50;31.05
5755;BME280;2902;42.130;24.732;2023-08-30T10:48:56;98376.75;;;35.57;30.91
5755;BME280;2902;42.130;24.732;2023-08-30T10:51:37;98370.06;;;35.61;31.67
5755;BME280;2902;42.130;24.732;2023-08-30T10:54:11;98369.81;;;35.23;31.63
5755;BME280;2902;42.130;24.732;2023-08-30T10:56:46;98357.81;;;34.98;32.38
5755;BME280;2902;42.130;24.732;2023-08-30T10:59:17;98357.56;;;34.70;33.93
5755;BME280;2902;42.130;24.732;2023-08-30T11:01:45;98351.41;;;34.43;34.05
5755;BME280;2902;42.130;24.732;2023-08-30T11:04:12;98358.69;;;34.65;34.64
5755;BME280;2902;42.130;24.732;2023-08-30T11:06:42;98371.28;;;34.63;32.70
5755;BME280;2902;42.130;24.732;2023-08-30T11:09:10;98365.78;;;34.63;32.55
5755;BME280;2902;42.130;24.732;2023-08-30T11:11:38;98359.50;;;34.66;32.75
5755;BME280;2902;42.130;24.732;2023-08-30T11:14:06;98356.75;;;34.66;33.00
5755;BME280;2902;42.130;24.732;2023-08-30T11:16:33;98354.91;;;34.80;33.00
5755;BME280;2902;42.130;24.732;2023-08-30T11:19:00;98325.53;;;34.58;33.48
5755;BME280;2902;42.130;24.732;2023-08-30T11:21:28;98349.28;;;34.70;33.39
5755;BME280;2902;42.130;24.732;2023-08-30T11:23:58;98344.53;;;34.67;33.78
5755;BME280;2902;42.130;24.732;2023-08-30T11:26:26;98346.03;;;34.61;34.06
5755;BME280;2902;42.130;24.732;2023-08-30T11:28:53;98339.38;;;34.62;33.77
5755;BME280;2902;42.130;24.732;2023-08-30T11:31:19;98338.19;;;34.63;33.71
5755;BME280;2902;42.130;24.732;2023-08-30T11:33:51;98350.41;;;34.62;33.91
5755;BME280;2902;42.130;24.732;2023-08-30T11:36:19;98339.72;;;34.57;34.10
5755;BME280;2902;42.130;24.732;2023-08-30T11:38:47;98333.63;;;34.37;33.55
5755;BME280;2902;42.130;24.732;2023-08-30T11:41:15;98328.88;;;34.01;34.29
5755;BME280;2902;42.130;24.732;2023-08-30T11:43:42;98318.56;;;33.91;35.42
5755;BME280;2902;42.130;24.732;2023-08-30T11:46:10;98310.09;;;34.10;35.11
5755;BME280;2902;42.130;24.732;2023-08-30T11:48:38;98311.47;;;34.30;34.79
5755;BME280;2902;42.130;24.732;2023-08-30T11:51:05;98314.81;;;34.50;36.44
5755;BME280;2902;42.130;24.732;2023-08-30T11:53:32;98314.56;;;34.69;34.32
5755;BME280;2902;42.130;24.732;2023-08-30T11:55:59;98322.84;;;34.69;34.43
5755;BME280;2902;42.130;24.732;2023-08-30T11:58:27;98323.56;;;34.55;33.97
5755;BME280;2902;42.130;24.732;2023-08-30T12:00:58;98315.31;;;34.62;34.01
5755;BME280;2902;42.130;24.732;2023-08-30T12:03:26;98305.91;;;34.67;33.67
5755;BME280;2902;42.130;24.732;2023-08-30T12:05:53;98311.06;;;34.72;33.66
5755;BME280;2902;42.130;24.732;2023-08-30T12:08:19;98306.78;;;34.78;33.35
5755;BME280;2902;42.130;24.732;2023-08-30T12:10:46;98311.22;;;34.93;32.89
5755;BME280;2902;42.130;24.732;2023-08-30T12:13:20;98304.13;;;34.92;34.02
5755;BME280;2902;42.130;24.732;2023-08-30T12:15:49;98299.03;;;34.94;33.50
5755;BME280;2902;42.130;24.732;2023-08-30T12:18:15;98297.91;;;35.05;33.31
5755;BME280;2902;42.130;24.732;2023-08-30T12:20:51;98291.25;;;35.17;32.96
5755;BME280;2902;42.130;24.732;2023-08-30T12:23:22;98293.16;;;35.02;33.54
5755;BME280;2902;42.130;24.732;2023-08-30T12:26:03;98286.13;;;35.15;33.80
5755;BME280;2902;42.130;24.732;2023-08-30T12:28:31;98273.16;;;35.23;34.05
5755;BME280;2902;42.130;24.732;2023-08-30T12:30:59;98280.16;;;35.10;33.25
5755;BME280;2902;42.130;24.732;2023-08-30T12:33:26;98273.00;;;34.98;32.53
5755;BME280;2902;42.130;24.732;2023-08-30T12:35:54;98269.81;;;34.89;33.06
5755;BME280;2902;42.130;24.732;2023-08-30T12:38:21;98277.75;;;34.98;33.16
5755;BME280;2902;42.130;24.732;2023-08-30T12:40:48;98272.25;;;35.05;32.92
5755;BME280;2902;42.130;24.732;2023-08-30T12:43:16;98266.78;;;35.12;33.35
5755;BME280;2902;42.130;24.732;2023-08-30T12:45:44;98256.50;;;35.09;32.87
5755;BME280;2902;42.130;24.732;2023-08-30T12:48:13;98254.91;;;35.04;34.27
5755;BME280;2902;42.130;24.732;2023-08-30T12:50:41;98250.97;;;35.05;33.18
5755;BME280;2902;42.130;24.732;2023-08-30T12:53:09;98254.94;;;35.08;33.42
5755;BME280;2902;42.130;24.732;2023-08-30T12:55:35;98247.84;;;35.14;32.81
5755;BME280;2902;42.130;24.732;2023-08-30T12:58:03;98244.28;;;35.10;33.09
5755;BME280;2902;42.130;24.732;2023-08-30T13:00:30;98237.97;;;35.13;33.15
5755;BME280;2902;42.130;24.732;2023-08-30T13:02:56;98236.78;;;35.07;33.90
5755;BME280;2902;42.130;24.732;2023-08-30T13:05:25;98234.41;;;35.05;34.80
5755;BME280;2902;42.130;24.732;2023-08-30T13:07:51;98237.56;;;35.04;34.32
5755;BME280;2902;42.130;24.732;2023-08-30T13:10:18;98220.06;;;34.82;33.60
5755;BME280;2902;42.130;24.732;2023-08-30T13:12:45;98235.06;;;34.85;33.45